createdAt,value
2019-01-11T00:02:09.364Z,101288.02
2019-01-11T00:04:59.358Z,101282.00
2019-01-11T00:07:49.557Z,101295.34
2019-01-11T00:10:39.751Z,101285.16
2019-01-11T00:13:29.249Z,101286.17
2019-01-11T00:16:19.353Z,101281.81
2019-01-11T00:19:09.115Z,101284.13
2019-01-11T00:21:58.958Z,101283.99
2019-01-11T00:24:48.564Z,101291.33
2019-01-11T00:27:38.622Z,101280.95
2019-01-11T00:30:28.632Z,101279.59
2019-01-11T00:33:18.441Z,101273.41
2019-01-11T00:36:08.219Z,101270.58
2019-01-11T00:38:59.571Z,101266.53
2019-01-11T00:41:49.589Z,101268.36
2019-01-11T00:44:40.374Z,101266.55
2019-01-11T00:47:30.161Z,101261.52
2019-01-11T00:50:22.645Z,101254.83
2019-01-11T00:53:13.152Z,101255.18
2019-01-11T00:56:03.028Z,101249.00
2019-01-11T00:58:52.870Z,101247.84
2019-01-11T01:01:43.006Z,101249.19
2019-01-11T01:04:33.163Z,101245.50
2019-01-11T01:07:23.336Z,101245.18
2019-01-11T01:10:13.470Z,101246.16
2019-01-11T01:13:03.441Z,101245.67
2019-01-11T01:15:53.445Z,101250.22
2019-01-11T01:18:43.233Z,101246.84
2019-01-11T01:21:32.828Z,101244.31
2019-01-11T01:24:22.434Z,101250.45
2019-01-11T01:27:12.271Z,101246.80
2019-01-11T01:30:02.318Z,101244.78
2019-01-11T01:32:52.826Z,101237.76
2019-01-11T01:35:42.515Z,101231.75
2019-01-11T01:38:32.673Z,101244.41
2019-01-11T01:41:22.711Z,101228.21
2019-01-11T01:44:12.970Z,101233.06
2019-01-11T01:47:02.887Z,101238.59
2019-01-11T01:49:52.690Z,101238.23
2019-01-11T01:52:42.771Z,101237.25
2019-01-11T01:55:32.426Z,101240.41
2019-01-11T01:58:21.423Z,101238.39
2019-01-11T02:01:11.424Z,101231.23
2019-01-11T02:04:01.026Z,101233.06
2019-01-11T02:06:51.307Z,101225.36
2019-01-11T02:09:41.271Z,101226.69
2019-01-11T02:12:31.101Z,101224.19
2019-01-11T02:15:20.981Z,101220.49
2019-01-11T02:18:10.990Z,101226.84
2019-01-11T02:21:01.382Z,101219.11
2019-01-11T02:23:51.252Z,101220.11
2019-01-11T02:26:41.458Z,101220.96
2019-01-11T02:29:31.363Z,101211.98
2019-01-11T02:32:21.680Z,101217.31
2019-01-11T02:35:11.864Z,101217.98
2019-01-11T02:38:01.846Z,101221.31
2019-01-11T02:40:52.002Z,101216.30
2019-01-11T02:43:41.773Z,101217.31
2019-01-11T02:46:31.863Z,101218.67
2019-01-11T02:49:21.733Z,101215.64
2019-01-11T02:52:11.903Z,101210.98
2019-01-11T02:55:02.137Z,101204.31
2019-01-11T02:57:52.222Z,101200.16
2019-01-11T03:00:41.974Z,101198.83
2019-01-11T03:03:32.978Z,101197.81
2019-01-11T03:06:22.862Z,101191.97
2019-01-11T03:09:13.112Z,101195.31
2019-01-11T03:12:02.969Z,101187.14
2019-01-11T03:14:53.027Z,101185.34
2019-01-11T03:17:43.321Z,101180.00
2019-01-11T03:20:32.961Z,101177.69
2019-01-11T03:23:22.800Z,101182.53
2019-01-11T03:26:12.956Z,101172.34
2019-01-11T03:29:02.704Z,101168.35
2019-01-11T03:31:52.539Z,101170.53
2019-01-11T03:35:00.347Z,101158.66
2019-01-11T03:37:51.749Z,101159.31
2019-01-11T03:40:41.549Z,101153.95
2019-01-11T03:43:31.393Z,101148.93
2019-01-11T03:46:21.514Z,101143.27
2019-01-11T03:49:11.576Z,101139.95
2019-01-11T03:52:01.720Z,101144.63
2019-01-11T03:54:52.109Z,101143.95
2019-01-11T03:57:42.003Z,101142.92
2019-01-11T04:00:31.728Z,101138.55
2019-01-11T04:03:21.588Z,101141.03
2019-01-11T04:06:11.396Z,101146.84
2019-01-11T04:09:01.536Z,101140.31
2019-01-11T04:11:52.681Z,101139.30
2019-01-11T04:14:42.928Z,101131.76
2019-01-11T04:17:32.892Z,101128.92
2019-01-11T04:20:22.458Z,101122.42
2019-01-11T04:23:12.167Z,101124.27
2019-01-11T04:26:02.238Z,101122.07
2019-01-11T04:28:52.341Z,101120.72
2019-01-11T04:31:42.001Z,101111.27
2019-01-11T04:34:31.813Z,101111.92
2019-01-11T04:37:21.761Z,101106.73
2019-01-11T04:40:13.043Z,101102.41
2019-01-11T04:43:03.303Z,101099.08
2019-01-11T04:45:53.538Z,101105.19
2019-01-11T04:48:43.640Z,101095.55
2019-01-11T04:51:33.182Z,101098.88
2019-01-11T04:54:24.349Z,101090.80
2019-01-11T04:57:14.490Z,101087.45
2019-01-11T05:00:09.647Z,101085.16
2019-01-11T05:02:59.731Z,101084.48
2019-01-11T05:05:50.710Z,101080.31
2019-01-11T05:08:40.528Z,101081.30
2019-01-11T05:11:30.371Z,101072.48
2019-01-11T05:14:20.752Z,101069.62
2019-01-11T05:17:10.891Z,101072.31
2019-01-11T05:20:00.670Z,101074.83
2019-01-11T05:22:51.807Z,101064.88
2019-01-11T05:25:41.657Z,101064.69
2019-01-11T05:28:31.426Z,101063.68
2019-01-11T05:31:21.618Z,101054.22
2019-01-11T05:34:11.500Z,101049.70
2019-01-11T05:37:01.460Z,101048.72
2019-01-11T05:39:52.852Z,101038.72
2019-01-11T05:42:43.164Z,100741.00
2019-01-11T05:45:32.704Z,101034.62
2019-01-11T05:48:22.774Z,101030.27
2019-01-11T05:51:12.461Z,101033.47
2019-01-11T05:54:01.983Z,101021.45
2019-01-11T05:56:51.834Z,101015.95
2019-01-11T05:59:41.464Z,101023.12
2019-01-11T06:02:31.296Z,101018.62
2019-01-11T06:05:21.215Z,101014.14
2019-01-11T06:08:14.735Z,101007.49
2019-01-11T06:11:04.955Z,101010.83
2019-01-11T06:13:54.866Z,101015.48
2019-01-11T06:16:44.878Z,101011.66
2019-01-11T06:19:34.955Z,100997.17
2019-01-11T06:22:25.319Z,100990.50
2019-01-11T06:25:15.476Z,100986.45
2019-01-11T06:28:05.742Z,100983.83
2019-01-11T06:30:55.746Z,100981.17
2019-01-11T06:33:46.712Z,100981.48
2019-01-11T06:36:36.988Z,100981.66
2019-01-11T06:39:26.734Z,100978.16
2019-01-11T06:42:26.412Z,100973.66
2019-01-11T06:45:16.253Z,100973.17
2019-01-11T06:48:11.566Z,100972.83
2019-01-11T06:51:01.183Z,100973.00
2019-01-11T06:53:51.475Z,100969.52
2019-01-11T06:56:42.456Z,100974.52
2019-01-11T06:59:32.011Z,100972.86
2019-01-11T07:02:22.379Z,100973.84
2019-01-11T07:05:13.046Z,100967.00
2019-01-11T07:08:02.503Z,100965.67
2019-01-11T07:10:52.865Z,100965.84
2019-01-11T07:13:42.994Z,100963.35
2019-01-11T07:16:33.135Z,100962.86
2019-01-11T07:19:22.971Z,100968.20
2019-01-11T07:22:13.057Z,100968.69
2019-01-11T07:25:03.350Z,100966.16
2019-01-11T07:28:01.082Z,100964.02
2019-01-11T07:31:06.912Z,100965.53
2019-01-11T07:33:56.521Z,100967.84
2019-01-11T07:36:49.168Z,100968.50
2019-01-11T07:39:39.318Z,100955.13
2019-01-11T07:42:29.296Z,100956.14
2019-01-11T07:45:19.435Z,100953.13
2019-01-11T07:48:09.607Z,100952.13
2019-01-11T07:50:58.750Z,100945.77
2019-01-11T07:53:48.701Z,100948.76
2019-01-11T07:56:38.364Z,100946.45
2019-01-11T07:59:28.055Z,100942.76
2019-01-11T08:02:17.917Z,100947.11
2019-01-11T08:05:08.783Z,100936.13
2019-01-11T08:07:58.805Z,100932.81
2019-01-11T08:10:48.631Z,100925.61
2019-01-11T08:13:38.775Z,100929.65
2019-01-11T08:16:28.939Z,100928.14
2019-01-11T08:19:18.786Z,100923.12
2019-01-11T08:22:10.139Z,100910.46
2019-01-11T08:25:03.934Z,100912.33
2019-01-11T08:27:53.644Z,100907.83
2019-01-11T08:30:43.462Z,100909.52
2019-01-11T08:33:34.262Z,100911.84
2019-01-11T08:36:24.482Z,100905.70
2019-01-11T08:39:14.417Z,100903.52
2019-01-11T08:42:04.491Z,100902.85
2019-01-11T08:44:54.865Z,100897.87
2019-01-11T08:47:45.103Z,100896.88
2019-01-11T08:50:35.007Z,100888.36
2019-01-11T08:53:25.113Z,100887.72
2019-01-11T08:56:15.750Z,100887.86
2019-01-11T08:59:05.789Z,100892.04
2019-01-11T09:01:56.237Z,100889.05
2019-01-11T09:04:46.360Z,100888.20
2019-01-11T09:07:36.552Z,100881.53
2019-01-11T09:10:26.450Z,100883.56
2019-01-11T09:13:16.148Z,100888.55
2019-01-11T09:16:06.381Z,100888.91
2019-01-11T09:18:58.587Z,100892.23
2019-01-11T09:21:48.521Z,100892.91
2019-01-11T09:24:38.523Z,100893.57
2019-01-11T09:27:28.667Z,100895.57
2019-01-11T09:30:18.987Z,100892.23
2019-01-11T09:33:08.710Z,100893.56
2019-01-11T09:35:58.527Z,100895.74
2019-01-11T09:38:48.834Z,100892.23
2019-01-11T09:41:38.767Z,100892.72
2019-01-11T09:44:28.702Z,100887.87
2019-01-11T09:47:18.896Z,100888.06
2019-01-11T09:50:09.510Z,100882.88
2019-01-11T09:52:59.127Z,100882.88
2019-01-11T09:55:48.969Z,100876.37
2019-01-11T09:58:39.008Z,100880.55
2019-01-11T10:01:28.879Z,100873.88
2019-01-11T10:04:23.771Z,100870.70
2019-01-11T10:07:25.488Z,100876.88
2019-01-11T10:10:16.730Z,100874.56
2019-01-11T10:13:06.889Z,100876.22
2019-01-11T10:15:57.181Z,100871.72
2019-01-11T10:18:47.190Z,100864.87
2019-01-11T10:21:37.177Z,100860.86
2019-01-11T10:24:27.411Z,100859.53
2019-01-11T10:27:17.044Z,100856.20
2019-01-11T10:30:12.646Z,100847.53
2019-01-11T10:33:02.434Z,100845.20
2019-01-11T10:35:52.242Z,100843.86
2019-01-11T10:38:42.201Z,100832.86
2019-01-11T10:41:32.624Z,100832.84
2019-01-11T10:44:22.722Z,100828.02
2019-01-11T10:47:12.632Z,100820.67
2019-01-11T10:50:02.825Z,100830.33
2019-01-11T10:52:52.803Z,100813.81
2019-01-11T10:55:43.058Z,100811.14
2019-01-11T10:58:33.038Z,100809.31
2019-01-11T11:01:22.452Z,100809.16
2019-01-11T11:04:12.339Z,100806.14
2019-01-11T11:07:02.495Z,100805.14
2019-01-11T11:09:52.674Z,100803.97
2019-01-11T11:12:42.786Z,100795.13
2019-01-11T11:15:32.648Z,100782.15
2019-01-11T11:18:22.648Z,100786.30
2019-01-11T11:21:12.706Z,100777.62
2019-01-11T11:24:02.621Z,100774.27
2019-01-11T11:26:52.626Z,100768.61
2019-01-11T11:29:42.984Z,100756.23
2019-01-11T11:33:04.265Z,100752.23
2019-01-11T11:35:54.358Z,100739.22
2019-01-11T11:38:44.509Z,100741.73
2019-01-11T11:41:34.470Z,100727.89
2019-01-11T11:44:24.454Z,100721.35
2019-01-11T11:47:14.995Z,100727.52
2019-01-11T11:50:05.741Z,100715.68
2019-01-11T11:52:55.697Z,100719.97
2019-01-11T11:55:45.561Z,100713.31
2019-01-11T11:58:35.125Z,100702.78
2019-01-11T12:01:25.274Z,100704.94
2019-01-11T12:04:15.429Z,100688.72
2019-01-11T12:07:07.700Z,100694.72
2019-01-11T12:09:57.736Z,100701.72
2019-01-11T12:12:47.817Z,100704.20
2019-01-11T12:15:37.560Z,100702.00
2019-01-11T12:18:28.058Z,100696.84
2019-01-11T12:21:18.163Z,100691.50
2019-01-11T12:24:07.947Z,100690.82
2019-01-11T12:26:57.772Z,100681.09
2019-01-11T12:29:47.832Z,100678.27
2019-01-11T12:32:37.961Z,100673.73
2019-01-11T12:35:28.385Z,100663.58
2019-01-11T12:38:18.597Z,100659.26
2019-01-11T12:41:08.493Z,100657.23
2019-01-11T12:43:58.681Z,100652.05
2019-01-11T12:46:48.492Z,100644.22
2019-01-11T12:49:39.019Z,100632.02
2019-01-11T12:52:28.924Z,100626.67
2019-01-11T12:55:18.862Z,100624.11
2019-01-11T12:58:08.852Z,100620.14
2019-01-11T13:00:59.368Z,100607.97
2019-01-11T13:03:49.776Z,100606.44
2019-01-11T13:06:39.140Z,100602.73
2019-01-11T13:09:28.786Z,100596.90
2019-01-11T13:12:18.928Z,100595.87
2019-01-11T13:15:12.397Z,100590.37
2019-01-11T13:18:01.982Z,100594.38
2019-01-11T13:20:51.925Z,100587.01
2019-01-11T13:23:42.754Z,100583.69
2019-01-11T13:26:33.114Z,100577.81
2019-01-11T13:29:23.049Z,100585.71
2019-01-11T13:32:12.816Z,100567.50
2019-01-11T13:35:02.520Z,100569.48
2019-01-11T13:37:52.327Z,100575.14
2019-01-11T13:40:42.449Z,100571.93
2019-01-11T13:43:32.499Z,100573.45
2019-01-11T13:46:22.745Z,100566.63
2019-01-11T13:49:12.777Z,100569.45
2019-01-11T13:52:07.117Z,100561.97
2019-01-11T13:54:54.359Z,100560.78
2019-01-11T13:57:44.438Z,100558.61
2019-01-11T14:00:34.394Z,100556.23
2019-01-11T14:03:24.296Z,100556.53
2019-01-11T14:06:14.091Z,100552.19
2019-01-11T14:09:05.721Z,100553.22
2019-01-11T14:11:55.906Z,100553.91
2019-01-11T14:14:46.002Z,100554.71
2019-01-11T14:17:35.742Z,100545.01
2019-01-11T14:20:26.777Z,100547.38
2019-01-11T14:23:16.741Z,100545.40
2019-01-11T14:26:06.606Z,100531.54
2019-01-11T14:28:56.696Z,100535.36
2019-01-11T14:31:46.633Z,100531.84
2019-01-11T14:34:36.152Z,100528.97
2019-01-11T14:37:32.151Z,100527.33
2019-01-11T14:40:17.546Z,100532.00
2019-01-11T14:43:07.414Z,100525.84
2019-01-11T14:45:57.204Z,100521.84
2019-01-11T14:48:47.675Z,100525.26
2019-01-11T14:51:37.582Z,100514.56
2019-01-11T14:54:27.747Z,100508.28
2019-01-11T14:57:17.939Z,100512.44
2019-01-11T15:00:13.757Z,100513.97
2019-01-11T15:03:03.579Z,100508.92
2019-01-11T15:05:53.329Z,100515.26
2019-01-11T15:08:43.412Z,100507.28
2019-01-11T15:11:33.640Z,100505.96
2019-01-11T15:14:23.617Z,100505.01
2019-01-11T15:17:13.702Z,100506.75
2019-01-11T15:20:03.628Z,100507.78
2019-01-11T15:22:53.938Z,100499.17
2019-01-11T15:25:44.007Z,100501.39
2019-01-11T15:28:33.970Z,100500.86
2019-01-11T15:31:23.879Z,100495.16
2019-01-11T15:34:13.887Z,100503.83
2019-01-11T15:37:04.162Z,100498.82
2019-01-11T15:39:54.164Z,100493.78
2019-01-11T15:42:44.269Z,100493.23
2019-01-11T15:45:34.504Z,100495.74
2019-01-11T15:48:51.040Z,100498.58
2019-01-11T15:51:41.178Z,100498.03
2019-01-11T15:54:31.284Z,100490.55
2019-01-11T15:57:41.926Z,100488.67
2019-01-11T16:00:31.944Z,100494.36
2019-01-11T16:03:21.485Z,100481.69
2019-01-11T16:06:34.563Z,100490.35
2019-01-11T16:09:59.425Z,100491.83
2019-01-11T16:13:16.738Z,100482.33
2019-01-11T16:16:51.410Z,100484.72
2019-01-11T16:19:41.441Z,100486.05
2019-01-11T16:22:31.898Z,100476.91
2019-01-11T16:25:21.273Z,100476.36
2019-01-11T16:28:11.572Z,100474.17
2019-01-11T16:31:01.321Z,100475.94
2019-01-11T16:33:51.483Z,100469.55
2019-01-11T16:36:41.611Z,100464.05
2019-01-11T16:39:31.431Z,100462.17
2019-01-11T16:42:21.377Z,100471.52
2019-01-11T16:45:13.193Z,100463.48
2019-01-11T16:48:02.793Z,100467.75
2019-01-11T16:50:52.490Z,100467.03
2019-01-11T16:53:42.279Z,100472.77
2019-01-11T16:56:32.371Z,100470.38
2019-01-11T16:59:22.516Z,100462.19
2019-01-11T17:02:13.029Z,100461.63
2019-01-11T17:05:02.667Z,100460.23
2019-01-11T17:07:52.443Z,100463.98
2019-01-11T17:10:42.888Z,100464.13
2019-01-11T17:13:40.392Z,100466.80
2019-01-11T17:16:26.108Z,100462.09
2019-01-11T17:19:16.690Z,100461.22
2019-01-11T17:22:06.623Z,100468.34
2019-01-11T17:24:56.705Z,100468.11
2019-01-11T17:27:46.712Z,100461.52
2019-01-11T17:30:37.843Z,100459.83
2019-01-11T17:33:27.590Z,100452.50
2019-01-11T17:36:17.331Z,100456.57
2019-01-11T17:39:09.504Z,100462.23
2019-01-11T17:41:59.039Z,100455.88
2019-01-11T17:44:49.369Z,100458.55
2019-01-11T17:47:39.649Z,100459.66
2019-01-11T17:50:29.489Z,100459.45
2019-01-11T17:53:19.411Z,100456.98
2019-01-11T17:56:09.548Z,100467.69
2019-01-11T17:58:59.155Z,100461.50
2019-01-11T18:01:49.531Z,100464.11
2019-01-11T18:04:39.561Z,100464.05
2019-01-11T18:07:28.840Z,100462.34
2019-01-11T18:10:19.085Z,100461.84
2019-01-11T18:13:08.967Z,100470.01
2019-01-11T18:15:58.712Z,100464.95
2019-01-11T18:18:48.744Z,100463.05
2019-01-11T18:21:38.535Z,100467.06
2019-01-11T18:24:28.403Z,100462.21
2019-01-11T18:27:18.626Z,100455.52
2019-01-11T18:30:10.046Z,100461.34
2019-01-11T18:33:00.085Z,100461.27
2019-01-11T18:35:50.595Z,100464.59
2019-01-11T18:38:40.100Z,100463.35
2019-01-11T18:41:30.440Z,100464.83
2019-01-11T18:44:20.492Z,100457.83
2019-01-11T18:47:10.036Z,100451.44
2019-01-11T18:49:59.799Z,100453.55
2019-01-11T18:52:49.626Z,100457.76
2019-01-11T18:55:39.733Z,100463.05
2019-01-11T18:58:29.674Z,100455.58
2019-01-11T19:01:19.317Z,100463.25
2019-01-11T19:04:09.281Z,100462.20
2019-01-11T19:06:59.388Z,100462.97
2019-01-11T19:09:49.256Z,100458.33
2019-01-11T19:12:39.454Z,100459.09
2019-01-11T19:15:30.160Z,100461.34
2019-01-11T19:18:20.005Z,100463.51
2019-01-11T19:21:12.901Z,100466.48
2019-01-11T19:24:02.948Z,100455.34
2019-01-11T19:26:53.162Z,100459.62
2019-01-11T19:29:43.081Z,100457.45
2019-01-11T19:32:34.746Z,100458.08
2019-01-11T19:35:24.876Z,100460.48
2019-01-11T19:38:14.954Z,100453.42
2019-01-11T19:41:04.856Z,100461.78
2019-01-11T19:43:54.422Z,100457.63
2019-01-11T19:46:45.624Z,100460.77
2019-01-11T19:49:35.332Z,100464.00
2019-01-11T19:52:25.588Z,100465.47
2019-01-11T19:55:15.656Z,100476.95
2019-01-11T19:58:05.718Z,100466.16
2019-01-11T20:00:55.757Z,100466.41
2019-01-11T20:03:45.873Z,100462.72
2019-01-11T20:06:36.337Z,100465.62
2019-01-11T20:09:26.065Z,100456.78
2019-01-11T20:12:15.897Z,100459.96
2019-01-11T20:15:07.113Z,100456.87
2019-01-11T20:17:56.921Z,100458.80
2019-01-11T20:20:46.331Z,100467.47
2019-01-11T20:23:37.060Z,100464.98
2019-01-11T20:26:27.438Z,100470.70
2019-01-11T20:29:17.619Z,100468.64
2019-01-11T20:32:07.275Z,100478.78
2019-01-11T20:34:57.084Z,100481.30
2019-01-11T20:37:47.855Z,100472.79
2019-01-11T20:40:37.432Z,100469.18
2019-01-11T20:43:27.343Z,100468.02
2019-01-11T20:46:17.353Z,100465.33
2019-01-11T20:49:07.409Z,100472.62
2019-01-11T20:51:57.577Z,100472.91
2019-01-11T20:54:47.293Z,100468.52
2019-01-11T20:57:37.246Z,100480.70
2019-01-11T21:00:33.266Z,100470.16
2019-01-11T21:03:24.469Z,100472.78
2019-01-11T21:06:14.266Z,100478.95
2019-01-11T21:09:06.505Z,100481.13
2019-01-11T21:11:56.345Z,100479.28
2019-01-11T21:14:46.764Z,100480.54
2019-01-11T21:17:36.460Z,100480.12
2019-01-11T21:20:26.790Z,100487.13
2019-01-11T21:23:17.184Z,100476.59
2019-01-11T21:26:07.475Z,100478.06
2019-01-11T21:28:57.554Z,100480.95
2019-01-11T21:31:47.336Z,100475.59
2019-01-11T21:34:37.299Z,100475.30
2019-01-11T21:37:27.453Z,100474.16
2019-01-11T21:40:19.544Z,100475.21
2019-01-11T21:43:08.904Z,100500.70
2019-01-11T21:46:03.234Z,100476.13
2019-01-11T21:48:50.900Z,100476.97
2019-01-11T21:51:41.115Z,100473.58
2019-01-11T21:54:30.939Z,100468.21
2019-01-11T21:57:20.648Z,100474.00
2019-01-11T22:00:24.109Z,100473.88
2019-01-11T22:03:18.615Z,100081.67
2019-01-11T22:06:08.397Z,100471.14
2019-01-11T22:08:57.879Z,100474.63
2019-01-11T22:11:47.396Z,100472.59
2019-01-11T22:14:37.116Z,100476.83
2019-01-11T22:17:27.163Z,100470.45
2019-01-11T22:20:18.049Z,100477.08
2019-01-11T22:23:07.899Z,100480.27
2019-01-11T22:25:57.732Z,100477.53
2019-01-11T22:28:47.935Z,100472.88
2019-01-11T22:31:37.997Z,100474.76
2019-01-11T22:34:28.076Z,100470.02
2019-01-11T22:37:17.992Z,100472.09
2019-01-11T22:40:12.758Z,100472.09
2019-01-11T22:43:02.775Z,100472.02
2019-01-11T22:45:52.679Z,100480.51
2019-01-11T22:48:42.899Z,100483.82
2019-01-11T22:51:33.295Z,100482.27
2019-01-11T22:54:23.267Z,100485.78
2019-01-11T22:57:13.628Z,100485.70
2019-01-11T23:00:05.180Z,100489.33
2019-01-11T23:02:59.232Z,100489.36
2019-01-11T23:05:49.673Z,100483.78
2019-01-11T23:08:41.519Z,100486.47
2019-01-11T23:12:03.476Z,100489.09
2019-01-11T23:14:53.542Z,100481.95
2019-01-11T23:18:04.614Z,100488.88
2019-01-11T23:20:58.900Z,100487.20
2019-01-11T23:23:48.320Z,100487.41
2019-01-11T23:26:38.081Z,100479.98
2019-01-11T23:29:28.765Z,100480.70
2019-01-11T23:32:19.166Z,100486.58
2019-01-11T23:35:09.417Z,100483.37
2019-01-11T23:37:59.611Z,100481.52
2019-01-11T23:40:49.413Z,100486.80
2019-01-11T23:43:41.093Z,100486.47
2019-01-11T23:46:31.738Z,100489.15
2019-01-11T23:49:21.380Z,100492.49
2019-01-11T23:52:11.499Z,100489.27
2019-01-11T23:55:01.478Z,100488.34
2019-01-11T23:57:51.304Z,100495.80
